createdAt,value
2023-01-20T00:01:16.511Z,2.70
2023-01-20T00:03:45.738Z,1.17
2023-01-20T00:06:13.407Z,2.17
2023-01-20T00:08:41.254Z,3.63
2023-01-20T00:11:09.415Z,1.42
2023-01-20T00:13:37.124Z,1.83
2023-01-20T00:16:06.921Z,1.33
2023-01-20T00:18:35.089Z,2.55
2023-01-20T00:21:03.343Z,2.05
2023-01-20T00:23:30.899Z,1.20
2023-01-20T00:25:58.503Z,1.83
2023-01-20T00:28:26.128Z,4.63
2023-01-20T00:30:53.779Z,1.70
2023-01-20T00:33:22.750Z,1.83
2023-01-20T00:35:50.294Z,1.30
2023-01-20T00:38:18.247Z,1.65
2023-01-20T00:40:45.799Z,3.05
2023-01-20T00:43:13.397Z,1.45
2023-01-20T00:45:41.899Z,2.72
2023-01-20T00:48:09.440Z,2.30
2023-01-20T00:50:38.351Z,1.98
2023-01-20T00:53:05.919Z,1.70
2023-01-20T00:55:33.468Z,1.95
2023-01-20T00:58:01.027Z,2.25
2023-01-20T01:00:28.610Z,3.00
2023-01-20T01:02:56.151Z,2.93
2023-01-20T01:05:23.913Z,2.05
2023-01-20T01:07:52.849Z,4.00
2023-01-20T01:10:20.440Z,2.20
2023-01-20T01:12:48.021Z,2.08
2023-01-20T01:15:15.619Z,2.13
2023-01-20T01:17:43.954Z,3.17
2023-01-20T01:20:12.144Z,2.22
2023-01-20T01:22:39.788Z,2.30
2023-01-20T01:25:09.011Z,2.85
2023-01-20T01:27:36.853Z,2.70
2023-01-20T01:30:04.520Z,3.70
2023-01-20T01:32:32.119Z,2.17
2023-01-20T01:34:59.703Z,2.72
2023-01-20T01:37:28.444Z,2.45
2023-01-20T01:39:56.136Z,2.78
2023-01-20T01:42:26.257Z,2.20
2023-01-20T01:45:12.927Z,3.97
2023-01-20T01:47:42.329Z,3.70
2023-01-20T01:50:11.349Z,2.30
2023-01-20T01:52:39.747Z,2.72
2023-01-20T01:55:07.852Z,3.72
2023-01-20T01:57:37.235Z,3.28
2023-01-20T02:00:04.857Z,3.15
2023-01-20T02:02:32.423Z,3.65
2023-01-20T02:05:00.017Z,3.40
2023-01-20T02:07:27.986Z,3.40
2023-01-20T02:09:55.555Z,3.42
2023-01-20T02:12:23.528Z,3.13
2023-01-20T02:14:53.815Z,2.67
2023-01-20T02:17:24.304Z,3.00
2023-01-20T02:20:17.672Z,3.17
2023-01-20T02:22:47.412Z,2.58
2023-01-20T02:25:32.474Z,2.75
2023-01-20T02:28:18.644Z,3.80
2023-01-20T02:31:04.092Z,2.53
2023-01-20T02:33:34.252Z,2.35
2023-01-20T02:36:03.684Z,3.05
2023-01-20T02:38:34.182Z,3.00
2023-01-20T02:41:06.433Z,3.53
2023-01-20T02:43:35.306Z,3.10
2023-01-20T02:46:04.868Z,3.45
2023-01-20T02:48:36.215Z,3.30
2023-01-20T02:51:07.688Z,3.90
2023-01-20T02:53:42.772Z,2.83
2023-01-20T02:56:10.687Z,3.40
2023-01-20T02:58:40.442Z,4.60
2023-01-20T03:01:09.963Z,2.90
2023-01-20T03:03:40.042Z,3.28
2023-01-20T03:06:09.239Z,3.63
2023-01-20T03:08:37.824Z,3.50
2023-01-20T03:11:06.648Z,3.63
2023-01-20T03:13:36.279Z,3.92
2023-01-20T03:16:05.624Z,4.20
2023-01-20T03:18:33.982Z,4.63
2023-01-20T03:21:03.932Z,5.70
2023-01-20T03:23:33.037Z,4.47
2023-01-20T03:26:00.649Z,5.43
2023-01-20T03:28:28.182Z,3.70
2023-01-20T03:30:57.111Z,6.40
2023-01-20T03:33:25.067Z,6.07
2023-01-20T03:35:52.841Z,5.65
2023-01-20T03:38:22.069Z,4.38
2023-01-20T03:40:53.054Z,4.00
2023-01-20T03:43:24.416Z,4.93
2023-01-20T03:45:56.336Z,4.75
2023-01-20T03:48:27.311Z,4.43
2023-01-20T03:50:55.994Z,4.68
2023-01-20T03:53:29.820Z,6.10
2023-01-20T03:56:00.238Z,5.70
2023-01-20T03:58:29.641Z,5.30
2023-01-20T04:00:58.078Z,5.97
2023-01-20T04:03:27.827Z,6.55
2023-01-20T04:05:56.786Z,7.85
2023-01-20T04:08:27.663Z,4.70
2023-01-20T04:10:56.687Z,5.10
2023-01-20T04:13:24.273Z,6.30
2023-01-20T04:15:51.958Z,4.72
2023-01-20T04:18:20.431Z,5.78
2023-01-20T04:20:49.256Z,4.35
2023-01-20T04:23:19.594Z,4.07
2023-01-20T04:25:48.529Z,4.55
2023-01-20T04:28:16.083Z,4.43
2023-01-20T04:30:43.783Z,5.30
2023-01-20T04:33:11.334Z,3.47
2023-01-20T04:35:38.892Z,4.90
2023-01-20T04:38:06.501Z,3.10
2023-01-20T04:40:34.102Z,3.45
2023-01-20T04:43:03.017Z,3.15
2023-01-20T04:45:30.565Z,3.10
2023-01-20T04:47:58.119Z,3.00
2023-01-20T04:50:25.672Z,2.85
2023-01-20T04:52:55.337Z,2.72
2023-01-20T04:55:22.884Z,2.72
2023-01-20T04:57:50.407Z,2.80
2023-01-20T05:00:20.627Z,2.93
2023-01-20T05:02:48.520Z,2.58
2023-01-20T05:05:16.497Z,2.22
2023-01-20T05:07:44.380Z,2.42
2023-01-20T05:10:13.341Z,2.47
2023-01-20T05:12:41.259Z,2.57
2023-01-20T05:15:09.580Z,2.55
2023-01-20T05:17:38.819Z,2.45
2023-01-20T05:20:06.745Z,2.63
2023-01-20T05:22:34.330Z,3.60
2023-01-20T05:25:01.888Z,1.90
2023-01-20T05:27:29.454Z,2.22
2023-01-20T05:29:57.008Z,2.05
2023-01-20T05:32:24.631Z,2.42
2023-01-20T05:34:53.558Z,1.58
2023-01-20T05:37:21.111Z,2.40
2023-01-20T05:39:48.684Z,2.22
2023-01-20T05:42:16.276Z,1.88
2023-01-20T05:44:43.791Z,2.47
2023-01-20T05:47:11.515Z,2.22
2023-01-20T05:49:39.195Z,1.57
2023-01-20T05:52:08.121Z,1.80
2023-01-20T05:54:35.663Z,3.13
2023-01-20T05:57:04.228Z,2.20
2023-01-20T05:59:31.785Z,4.18
2023-01-20T06:01:59.361Z,2.60
2023-01-20T06:04:26.914Z,3.00
2023-01-20T06:06:54.461Z,2.75
2023-01-20T06:09:23.461Z,3.30
2023-01-20T06:11:52.056Z,2.67
2023-01-20T06:14:19.644Z,2.40
2023-01-20T06:16:47.185Z,2.67
2023-01-20T06:19:14.915Z,2.88
2023-01-20T06:21:42.502Z,2.53
2023-01-20T06:24:10.082Z,2.00
2023-01-20T06:26:39.009Z,3.23
2023-01-20T06:29:06.621Z,2.83
2023-01-20T06:31:34.400Z,4.28
2023-01-20T06:34:02.004Z,4.05
2023-01-20T06:36:29.545Z,3.10
2023-01-20T06:38:57.098Z,3.87
2023-01-20T06:41:41.115Z,3.83
2023-01-20T06:44:08.850Z,3.05
2023-01-20T06:46:36.482Z,2.70
2023-01-20T06:49:04.074Z,3.67
2023-01-20T06:51:31.800Z,3.20
2023-01-20T06:53:59.350Z,3.90
2023-01-20T06:56:27.226Z,3.22
2023-01-20T06:58:56.185Z,3.30
2023-01-20T07:01:24.720Z,3.40
2023-01-20T07:03:52.474Z,2.63
2023-01-20T07:06:23.838Z,2.65
2023-01-20T07:08:51.604Z,2.92
2023-01-20T07:11:19.269Z,2.90
2023-01-20T07:13:47.014Z,2.50
2023-01-20T07:16:16.219Z,2.83
2023-01-20T07:18:44.249Z,2.55
2023-01-20T07:21:12.451Z,6.78
2023-01-20T07:23:40.031Z,3.15
2023-01-20T07:26:08.445Z,3.00
2023-01-20T07:28:36.978Z,4.50
2023-01-20T07:31:05.331Z,2.70
2023-01-20T07:33:34.701Z,4.30
2023-01-20T07:36:02.464Z,2.53
2023-01-20T07:38:30.240Z,2.30
2023-01-20T07:40:58.163Z,3.00
2023-01-20T07:43:25.783Z,4.05
2023-01-20T07:45:55.577Z,3.10
2023-01-20T07:48:23.211Z,3.40
2023-01-20T07:50:57.773Z,3.08
2023-01-20T07:53:25.401Z,2.70
2023-01-20T07:55:52.934Z,5.30
2023-01-20T07:58:20.508Z,3.38
2023-01-20T08:00:49.113Z,2.60
2023-01-20T08:03:16.971Z,3.78
2023-01-20T08:05:44.535Z,3.10
2023-01-20T08:08:13.445Z,3.75
2023-01-20T08:10:41.019Z,2.80
2023-01-20T08:13:08.565Z,4.97
2023-01-20T08:15:36.143Z,4.40
2023-01-20T08:18:03.737Z,4.50
2023-01-20T08:20:31.308Z,3.70
2023-01-20T08:22:58.848Z,2.55
2023-01-20T08:25:27.824Z,4.80
2023-01-20T08:27:55.364Z,5.25
2023-01-20T08:30:22.956Z,3.45
2023-01-20T08:32:50.672Z,9.60
2023-01-20T08:35:18.355Z,3.03
2023-01-20T08:37:45.934Z,4.75
2023-01-20T08:40:13.762Z,3.42
2023-01-20T08:42:42.717Z,4.33
2023-01-20T08:45:10.638Z,3.15
2023-01-20T08:47:38.605Z,2.63
2023-01-20T08:50:06.881Z,3.55
2023-01-20T08:52:34.459Z,3.25
2023-01-20T08:55:02.013Z,2.92
2023-01-20T08:57:29.920Z,5.30
2023-01-20T08:59:58.984Z,3.40
2023-01-20T09:02:26.587Z,5.05
2023-01-20T09:04:54.552Z,4.60
2023-01-20T09:07:22.224Z,5.28
2023-01-20T09:09:49.778Z,5.72
2023-01-20T09:12:17.318Z,7.60
2023-01-20T09:14:44.905Z,3.50
2023-01-20T09:17:14.737Z,3.80
2023-01-20T09:19:42.305Z,4.87
2023-01-20T09:22:09.850Z,6.53
2023-01-20T09:24:37.435Z,6.00
2023-01-20T09:27:04.980Z,4.53
2023-01-20T09:29:32.564Z,4.97
2023-01-20T09:32:00.281Z,4.00
2023-01-20T09:34:29.880Z,4.00
2023-01-20T09:36:58.292Z,3.50
2023-01-20T09:39:43.732Z,4.47
2023-01-20T09:42:37.742Z,4.35
2023-01-20T09:45:09.955Z,6.10
2023-01-20T09:47:39.669Z,5.32
2023-01-20T09:50:31.421Z,10.25
2023-01-20T09:53:04.645Z,6.57
2023-01-20T09:55:34.847Z,7.72
2023-01-20T09:58:06.642Z,6.37
2023-01-20T10:00:35.029Z,5.68
2023-01-20T10:03:06.649Z,4.60
2023-01-20T10:05:39.204Z,6.13
2023-01-20T10:08:09.920Z,4.75
2023-01-20T10:10:41.034Z,5.15
2023-01-20T10:13:11.769Z,5.30
2023-01-20T10:15:41.779Z,7.38
2023-01-20T10:18:11.169Z,5.70
2023-01-20T10:20:42.468Z,7.53
2023-01-20T10:23:15.841Z,6.18
2023-01-20T10:25:48.328Z,5.15
2023-01-20T10:28:16.671Z,5.47
2023-01-20T10:30:47.290Z,6.43
2023-01-20T10:33:16.283Z,5.10
2023-01-20T10:35:47.551Z,9.15
2023-01-20T10:38:19.259Z,4.32
2023-01-20T10:40:50.165Z,4.50
2023-01-20T10:43:18.589Z,5.30
2023-01-20T10:45:53.669Z,7.18
2023-01-20T10:48:28.898Z,7.40
2023-01-20T10:51:03.903Z,6.00
2023-01-20T10:53:44.665Z,6.40
2023-01-20T10:56:18.547Z,6.13
2023-01-20T10:58:47.623Z,9.70
2023-01-20T11:01:17.013Z,7.60
2023-01-20T11:03:46.273Z,7.03
2023-01-20T11:06:19.154Z,10.05
2023-01-20T11:08:46.757Z,8.02
2023-01-20T11:11:16.292Z,8.00
2023-01-20T11:13:43.938Z,9.40
2023-01-20T11:16:13.617Z,6.57
2023-01-20T11:18:41.260Z,9.75
2023-01-20T11:21:10.172Z,10.88
2023-01-20T11:23:40.924Z,15.45
2023-01-20T11:26:10.964Z,10.20
2023-01-20T11:28:45.948Z,12.15
2023-01-20T11:31:13.732Z,8.82
2023-01-20T11:33:41.394Z,9.13
2023-01-20T11:36:17.530Z,10.82
2023-01-20T11:38:47.291Z,8.88
2023-01-20T11:41:22.106Z,9.23
2023-01-20T11:43:50.123Z,11.20
2023-01-20T11:46:23.550Z,13.68
2023-01-20T11:48:51.572Z,11.48
2023-01-20T11:51:25.273Z,10.10
2023-01-20T11:54:07.165Z,11.95
2023-01-20T11:56:40.089Z,14.10
2023-01-20T11:59:18.028Z,9.98
2023-01-20T12:01:52.906Z,9.60
2023-01-20T12:04:35.513Z,13.18
2023-01-20T12:07:04.520Z,9.65
2023-01-20T12:09:35.303Z,9.05
2023-01-20T12:12:04.519Z,12.38
2023-01-20T12:14:33.870Z,10.52
2023-01-20T12:17:06.623Z,10.93
2023-01-20T12:19:37.118Z,8.15
2023-01-20T12:22:10.864Z,14.52
2023-01-20T12:25:03.265Z,10.90
2023-01-20T12:27:31.253Z,9.82
2023-01-20T12:30:01.271Z,8.93
2023-01-20T12:32:31.583Z,9.02
2023-01-20T12:34:59.161Z,10.50
2023-01-20T12:37:29.891Z,12.77
2023-01-20T12:40:14.122Z,10.23
2023-01-20T12:43:02.514Z,11.57
2023-01-20T12:45:35.798Z,9.13
2023-01-20T12:48:11.172Z,8.18
2023-01-20T12:50:45.347Z,10.43
2023-01-20T12:53:20.848Z,12.00
2023-01-20T12:55:55.835Z,15.15
2023-01-20T12:58:30.218Z,8.13
2023-01-20T13:01:10.729Z,7.95
2023-01-20T13:03:45.147Z,11.93
2023-01-20T13:06:30.390Z,9.20
2023-01-20T13:09:05.007Z,6.65
2023-01-20T13:11:41.345Z,8.07
2023-01-20T13:14:11.951Z,8.32
2023-01-20T13:16:45.427Z,10.05
2023-01-20T13:19:14.699Z,8.63
2023-01-20T13:21:42.656Z,9.30
2023-01-20T13:24:18.759Z,9.68
2023-01-20T13:26:48.894Z,9.50
2023-01-20T13:29:23.574Z,10.48
2023-01-20T13:31:52.831Z,8.93
2023-01-20T13:34:44.310Z,11.85
2023-01-20T13:37:26.362Z,11.05
2023-01-20T13:39:54.869Z,16.55
2023-01-20T13:42:31.124Z,8.68
2023-01-20T13:45:16.764Z,13.27
2023-01-20T13:47:51.387Z,9.15
2023-01-20T13:50:23.331Z,8.65
2023-01-20T13:53:04.464Z,10.52
2023-01-20T13:55:32.178Z,9.05
2023-01-20T13:58:01.124Z,10.60
2023-01-20T14:00:28.691Z,13.63
2023-01-20T14:02:56.294Z,9.80
2023-01-20T14:05:28.564Z,13.77
2023-01-20T14:07:56.739Z,8.55
2023-01-20T14:10:24.646Z,7.65
2023-01-20T14:12:52.227Z,10.73
2023-01-20T14:15:29.000Z,8.90
2023-01-20T14:17:56.949Z,8.35
2023-01-20T14:20:25.688Z,9.15
2023-01-20T14:22:53.246Z,9.48
2023-01-20T14:25:22.670Z,11.02
2023-01-20T14:27:50.262Z,8.68
2023-01-20T14:30:21.040Z,14.07
2023-01-20T14:32:50.561Z,11.60
2023-01-20T14:35:21.039Z,12.23
2023-01-20T14:37:50.394Z,9.85
2023-01-20T14:40:23.593Z,10.43
2023-01-20T14:42:57.995Z,9.48
2023-01-20T14:45:26.499Z,8.45
2023-01-20T14:47:56.114Z,9.73
2023-01-20T14:50:23.801Z,11.45
2023-01-20T14:52:51.447Z,9.38
2023-01-20T14:55:29.165Z,8.43
2023-01-20T14:57:56.867Z,21.70
2023-01-20T15:00:25.582Z,9.90
2023-01-20T15:03:10.210Z,12.32
2023-01-20T15:05:41.625Z,11.80
2023-01-20T15:08:18.551Z,9.15
2023-01-20T15:10:46.325Z,10.00
2023-01-20T15:13:23.007Z,10.35
2023-01-20T15:15:50.646Z,8.85
2023-01-20T15:18:19.917Z,9.73
2023-01-20T15:20:50.525Z,8.98
2023-01-20T15:23:20.820Z,7.90
2023-01-20T15:25:48.672Z,8.88
2023-01-20T15:28:25.747Z,11.00
2023-01-20T15:30:53.966Z,10.75
2023-01-20T15:33:23.984Z,13.77
2023-01-20T15:35:57.499Z,14.57
2023-01-20T15:38:25.319Z,17.75
2023-01-20T15:40:52.869Z,16.50
2023-01-20T15:43:20.660Z,14.70
2023-01-20T15:45:48.359Z,15.15
2023-01-20T15:48:17.242Z,15.50
2023-01-20T15:50:44.841Z,14.57
2023-01-20T15:53:13.974Z,15.55
2023-01-20T15:55:44.940Z,22.63
2023-01-20T15:58:20.553Z,17.42
2023-01-20T16:00:48.116Z,42.92
2023-01-20T16:03:15.711Z,23.65
2023-01-20T16:05:43.298Z,27.65
2023-01-20T16:08:15.150Z,59.22
2023-01-20T16:10:42.825Z,119.53
2023-01-20T16:13:11.034Z,191.00
2023-01-20T16:15:38.925Z,168.02
2023-01-20T16:18:06.738Z,30.65
2023-01-20T16:20:35.700Z,177.63
2023-01-20T16:23:03.276Z,125.25
2023-01-20T16:25:32.759Z,146.35
2023-01-20T16:28:00.328Z,84.68
2023-01-20T16:30:28.117Z,32.70
2023-01-20T16:32:55.862Z,11.65
2023-01-20T16:35:25.465Z,38.40
2023-01-20T16:37:53.366Z,13.90
2023-01-20T16:40:22.259Z,19.52
2023-01-20T16:42:51.258Z,23.90
2023-01-20T16:45:23.888Z,25.35
2023-01-20T16:47:51.693Z,11.30
2023-01-20T16:50:19.469Z,15.18
2023-01-20T16:52:47.084Z,11.40
2023-01-20T16:55:14.922Z,11.23
2023-01-20T16:57:43.174Z,12.02
2023-01-20T17:00:12.976Z,12.55
2023-01-20T17:02:40.615Z,10.77
2023-01-20T17:05:09.157Z,11.52
2023-01-20T17:07:37.033Z,14.43
2023-01-20T17:10:04.753Z,11.70
2023-01-20T17:12:32.350Z,15.40
2023-01-20T17:15:00.086Z,19.35
2023-01-20T17:17:29.018Z,19.25
2023-01-20T17:19:56.556Z,19.03
2023-01-20T17:22:24.127Z,18.98
2023-01-20T17:24:51.733Z,17.05
2023-01-20T17:27:19.347Z,14.70
2023-01-20T17:29:46.950Z,16.77
2023-01-20T17:32:16.082Z,15.07
2023-01-20T17:34:45.032Z,13.25
2023-01-20T17:37:12.584Z,13.07
2023-01-20T17:39:40.178Z,14.50
2023-01-20T17:42:07.694Z,15.45
2023-01-20T17:44:37.584Z,12.77
2023-01-20T17:47:05.298Z,14.55
2023-01-20T17:49:32.883Z,16.58
2023-01-20T17:52:01.816Z,14.82
2023-01-20T17:54:29.413Z,14.38
2023-01-20T17:56:56.973Z,15.47
2023-01-20T17:59:26.339Z,11.45
2023-01-20T18:01:54.353Z,13.65
2023-01-20T18:04:21.909Z,13.05
2023-01-20T18:06:49.535Z,13.65
2023-01-20T18:09:18.514Z,13.77
2023-01-20T18:11:46.325Z,13.07
2023-01-20T18:14:13.963Z,14.98
2023-01-20T18:16:41.969Z,12.48
2023-01-20T18:19:10.981Z,13.48
2023-01-20T18:21:38.639Z,13.20
2023-01-20T18:24:07.405Z,16.13
2023-01-20T18:26:37.430Z,12.02
2023-01-20T18:29:05.910Z,15.57
2023-01-20T18:31:34.048Z,13.07
2023-01-20T18:34:02.369Z,10.90
2023-01-20T18:36:30.665Z,14.88
2023-01-20T18:38:59.428Z,11.43
2023-01-20T18:41:27.730Z,13.02
2023-01-20T18:43:57.361Z,10.48
2023-01-20T18:46:25.580Z,11.73
2023-01-20T18:48:54.644Z,14.43
2023-01-20T18:51:23.375Z,16.65
2023-01-20T18:53:54.762Z,19.33
2023-01-20T18:56:22.400Z,17.77
2023-01-20T18:58:50.073Z,15.57
2023-01-20T19:01:19.767Z,20.00
2023-01-20T19:03:52.814Z,33.63
2023-01-20T19:06:21.598Z,42.65
2023-01-20T19:08:49.808Z,31.55
2023-01-20T19:11:18.457Z,35.00
2023-01-20T19:13:46.869Z,29.77
2023-01-20T19:16:14.529Z,28.35
2023-01-20T19:18:44.760Z,28.73
2023-01-20T19:21:13.489Z,56.40
2023-01-20T19:23:41.621Z,166.90
2023-01-20T19:26:10.821Z,103.22
2023-01-20T19:28:39.059Z,142.25
2023-01-20T19:31:07.776Z,145.88
2023-01-20T19:33:36.307Z,111.75
2023-01-20T19:36:07.463Z,145.87
2023-01-20T19:38:35.585Z,248.27
2023-01-20T19:41:06.884Z,111.10
2023-01-20T19:43:35.052Z,117.72
2023-01-20T19:46:04.376Z,118.47
2023-01-20T19:48:32.863Z,64.23
2023-01-20T19:51:03.299Z,21.48
2023-01-20T19:53:32.364Z,41.88
2023-01-20T19:56:03.673Z,62.35
2023-01-20T19:58:31.376Z,41.80
2023-01-20T20:01:06.185Z,32.07
2023-01-20T20:03:34.058Z,14.85
2023-01-20T20:06:02.023Z,18.55
2023-01-20T20:08:29.878Z,18.38
2023-01-20T20:10:59.135Z,19.85
2023-01-20T20:13:26.744Z,16.43
2023-01-20T20:16:00.977Z,16.58
2023-01-20T20:18:29.197Z,17.23
2023-01-20T20:21:01.537Z,14.98
2023-01-20T20:23:30.040Z,14.07
2023-01-20T20:26:06.485Z,15.53
2023-01-20T20:28:34.470Z,17.70
2023-01-20T20:31:06.127Z,13.40
2023-01-20T20:33:34.265Z,18.25
2023-01-20T20:36:06.160Z,27.92
2023-01-20T20:38:34.679Z,18.00
2023-01-20T20:41:04.355Z,15.20
2023-01-20T20:43:32.346Z,18.08
2023-01-20T20:46:00.676Z,15.93
2023-01-20T20:48:28.630Z,15.35
2023-01-20T20:50:59.252Z,14.07
2023-01-20T20:53:27.078Z,14.30
2023-01-20T20:55:59.158Z,13.85
2023-01-20T20:58:32.681Z,13.85
2023-01-20T21:01:03.546Z,15.63
2023-01-20T21:03:31.834Z,18.83
2023-01-20T21:05:59.920Z,12.82
2023-01-20T21:08:27.860Z,16.05
2023-01-20T21:10:57.703Z,17.50
2023-01-20T21:13:25.466Z,14.80
2023-01-20T21:16:00.574Z,12.03
2023-01-20T21:18:28.487Z,17.45
2023-01-20T21:21:00.570Z,17.38
2023-01-20T21:23:29.969Z,16.88
2023-01-20T21:26:04.082Z,14.40
2023-01-20T21:28:39.125Z,12.90
2023-01-20T21:31:12.447Z,13.93
2023-01-20T21:33:41.613Z,15.00
2023-01-20T21:36:12.625Z,15.45
2023-01-20T21:38:44.712Z,12.57
2023-01-20T21:41:12.775Z,13.27
2023-01-20T21:44:01.183Z,15.15
2023-01-20T21:46:30.877Z,14.35
2023-01-20T21:49:16.109Z,16.77
2023-01-20T21:52:01.259Z,14.45
2023-01-20T21:54:30.140Z,15.77
2023-01-20T21:56:57.674Z,11.98
2023-01-20T21:59:25.437Z,14.25
2023-01-20T22:01:54.639Z,15.93
2023-01-20T22:04:22.857Z,13.35
2023-01-20T22:06:53.996Z,13.93
2023-01-20T22:09:21.996Z,14.43
2023-01-20T22:11:50.311Z,17.40
2023-01-20T22:14:17.889Z,13.13
2023-01-20T22:16:46.131Z,12.75
2023-01-20T22:19:15.256Z,14.63
2023-01-20T22:21:43.215Z,17.88
2023-01-20T22:24:11.073Z,13.00
2023-01-20T22:26:38.634Z,13.48
2023-01-20T22:29:06.240Z,11.35
2023-01-20T22:31:34.368Z,15.37
2023-01-20T22:34:05.161Z,12.60
2023-01-20T22:36:34.739Z,14.63
2023-01-20T22:39:02.848Z,13.57
2023-01-20T22:41:30.388Z,13.95
2023-01-20T22:43:57.935Z,13.17
2023-01-20T22:46:26.900Z,12.02
2023-01-20T22:48:56.251Z,15.63
2023-01-20T22:51:24.519Z,15.88
2023-01-20T22:53:55.122Z,11.32
2023-01-20T22:56:23.564Z,12.33
2023-01-20T22:58:51.538Z,15.82
2023-01-20T23:01:20.194Z,16.25
2023-01-20T23:03:48.099Z,11.52
2023-01-20T23:06:15.978Z,10.40
2023-01-20T23:08:43.627Z,14.23
2023-01-20T23:11:13.537Z,12.95
2023-01-20T23:13:42.895Z,12.98
2023-01-20T23:16:12.552Z,15.10
2023-01-20T23:18:40.124Z,12.90
2023-01-20T23:21:07.929Z,9.40
2023-01-20T23:23:35.511Z,13.57
2023-01-20T23:26:03.639Z,11.32
2023-01-20T23:28:32.822Z,13.07
2023-01-20T23:31:01.422Z,15.35
2023-01-20T23:33:29.030Z,12.83
2023-01-20T23:35:56.665Z,11.93
2023-01-20T23:38:24.230Z,10.93
2023-01-20T23:40:51.780Z,15.23
2023-01-20T23:43:19.334Z,12.38
2023-01-20T23:45:48.290Z,15.57
2023-01-20T23:48:15.857Z,12.65
2023-01-20T23:50:43.445Z,12.52
2023-01-20T23:53:11.004Z,10.07
2023-01-20T23:55:38.881Z,14.27
2023-01-20T23:58:06.508Z,15.50
